Terminal Aerodrome Forecast
Issued by NWS

Home | Current Version | Previous Version | Text Only | Print | Product List | Glossary On
Versions: 1 2 3 4 5 6 7 8 9 10 11 12 13 14 15 16 17 18 19 20 21 22 23 24 25 26 27
729
FTUS42 KFFC 271305 AAA
TAFPDK
TAF AMD
KPDK 271305Z 2713/2812 00000KT 3SM BR BKN004
     FM271500 21010KT 5SM BR BKN015
     FM271800 22010KT P6SM VCSH BKN045 PROB30 2801/2804 4SM -TSRA
      BKN045CB
     FM280400 17005KT P6SM VCSH BKN035
     FM281000 22005KT P6SM OVC012=

USA.gov is the U.S. government's official web portal to all federal, state and local government web resources and services.